createdAt,value
2023-01-10T00:00:26.824Z,100358.00
2023-01-10T00:02:53.721Z,100374.31
2023-01-10T00:05:20.619Z,100379.47
2023-01-10T00:07:47.486Z,100389.63
2023-01-10T00:10:14.285Z,100394.13
2023-01-10T00:12:59.438Z,100403.00
2023-01-10T00:15:26.231Z,100408.56
2023-01-10T00:17:53.109Z,100396.78
2023-01-10T00:20:20.005Z,100394.81
2023-01-10T00:22:47.010Z,100410.59
2023-01-10T00:25:13.945Z,100396.94
2023-01-10T00:27:40.737Z,100404.16
2023-01-10T00:30:17.192Z,100410.25
2023-01-10T00:32:44.627Z,100410.03
2023-01-10T00:35:12.168Z,100411.94
2023-01-10T00:37:39.597Z,100420.91
2023-01-10T00:40:10.493Z,100436.34
2023-01-10T00:42:55.754Z,100441.78
2023-01-10T00:45:24.768Z,100449.22
2023-01-10T00:47:52.017Z,100442.72
2023-01-10T00:50:19.051Z,100451.31
2023-01-10T00:52:45.892Z,100458.88
2023-01-10T00:55:12.754Z,100475.63
2023-01-10T00:57:39.539Z,100482.69
2023-01-10T01:00:09.326Z,100488.38
2023-01-10T01:02:36.384Z,100494.25
2023-01-10T01:05:04.091Z,100491.66
2023-01-10T01:07:30.903Z,100491.88
2023-01-10T01:10:16.217Z,100502.47
2023-01-10T01:12:43.018Z,100508.00
2023-01-10T01:15:10.066Z,100512.00
2023-01-10T01:17:36.934Z,100519.06
2023-01-10T01:20:04.280Z,100530.59
2023-01-10T01:22:31.076Z,100526.47
2023-01-10T01:24:57.888Z,100529.91
2023-01-10T01:27:24.710Z,100532.59
2023-01-10T01:29:51.511Z,100531.66
2023-01-10T01:32:18.990Z,100532.19
2023-01-10T01:34:45.921Z,100543.41
2023-01-10T01:37:12.690Z,100534.41
2023-01-10T01:39:40.719Z,100533.78
2023-01-10T01:42:12.428Z,100540.88
2023-01-10T01:44:39.712Z,100539.91
2023-01-10T01:47:26.115Z,100544.16
2023-01-10T01:49:52.893Z,100548.44
2023-01-10T01:52:23.311Z,100540.75
2023-01-10T01:54:50.134Z,100536.84
2023-01-10T01:57:18.874Z,100552.78
2023-01-10T01:59:46.843Z,100564.00
2023-01-10T02:02:22.422Z,100571.66
2023-01-10T02:05:03.967Z,100564.81
2023-01-10T02:07:34.053Z,100557.47
2023-01-10T02:10:01.722Z,100562.97
2023-01-10T02:12:29.218Z,100565.38
2023-01-10T02:14:56.048Z,100566.47
2023-01-10T02:17:22.831Z,100568.13
2023-01-10T02:20:09.780Z,100574.56
2023-01-10T02:23:26.252Z,100585.56
2023-01-10T02:26:14.690Z,100589.09
2023-01-10T02:28:45.958Z,100579.75
2023-01-10T02:31:34.790Z,100590.13
2023-01-10T02:34:10.631Z,100591.75
2023-01-10T02:36:37.399Z,100596.13
2023-01-10T02:39:41.350Z,100594.34
2023-01-10T02:42:09.661Z,100601.84
2023-01-10T02:44:58.373Z,100603.06
2023-01-10T02:47:25.170Z,100590.81
2023-01-10T02:49:52.299Z,100588.84
2023-01-10T02:52:24.263Z,100596.84
2023-01-10T02:54:56.268Z,100589.88
2023-01-10T02:57:32.128Z,100599.84
2023-01-10T03:00:27.673Z,100606.56
2023-01-10T03:03:13.050Z,100605.75
2023-01-10T03:06:17.186Z,100605.63
2023-01-10T03:08:51.039Z,100607.09
2023-01-10T03:11:37.789Z,100610.44
2023-01-10T03:14:04.572Z,100614.84
2023-01-10T03:16:31.386Z,100618.28
2023-01-10T03:19:07.745Z,100623.50
2023-01-10T03:21:34.668Z,100628.22
2023-01-10T03:24:12.949Z,100630.00
2023-01-10T03:26:49.505Z,100638.31
2023-01-10T03:29:21.248Z,100644.66
2023-01-10T03:31:51.148Z,100643.63
2023-01-10T03:34:17.929Z,100654.00
2023-01-10T03:37:14.777Z,100667.31
2023-01-10T03:39:48.911Z,100662.13
2023-01-10T03:42:15.611Z,100671.25
2023-01-10T03:45:07.511Z,100676.53
2023-01-10T03:47:37.966Z,100666.66
2023-01-10T03:50:09.050Z,100686.56
2023-01-10T03:52:35.827Z,100675.19
2023-01-10T03:55:03.527Z,100687.81
2023-01-10T03:57:30.361Z,100694.28
2023-01-10T03:59:58.189Z,100700.97
2023-01-10T04:02:30.747Z,100695.31
2023-01-10T04:04:58.981Z,100704.75
2023-01-10T04:07:25.996Z,100719.13
2023-01-10T04:09:52.907Z,100712.31
2023-01-10T04:12:19.696Z,100737.34
2023-01-10T04:14:47.254Z,100743.06
2023-01-10T04:17:15.018Z,100747.75
2023-01-10T04:19:42.090Z,100750.63
2023-01-10T04:22:09.534Z,100750.03
2023-01-10T04:24:36.503Z,100753.81
2023-01-10T04:27:03.415Z,100749.06
2023-01-10T04:29:30.212Z,100758.38
2023-01-10T04:31:57.072Z,100762.97
2023-01-10T04:34:23.910Z,100766.09
2023-01-10T04:36:50.846Z,100775.44
2023-01-10T04:39:17.714Z,100773.69
2023-01-10T04:41:44.527Z,100775.44
2023-01-10T04:44:11.516Z,100778.84
2023-01-10T04:46:38.311Z,100789.66
2023-01-10T04:49:05.586Z,100789.47
2023-01-10T04:51:32.368Z,100791.03
2023-01-10T04:53:59.553Z,100798.69
2023-01-10T04:56:26.391Z,100821.50
2023-01-10T04:58:54.181Z,100817.91
2023-01-10T05:01:25.778Z,100815.44
2023-01-10T05:03:54.814Z,100817.06
2023-01-10T05:06:21.913Z,100832.13
2023-01-10T05:08:48.766Z,100832.88
2023-01-10T05:11:15.581Z,100829.44
2023-01-10T05:13:42.432Z,100837.00
2023-01-10T05:16:09.284Z,100829.66
2023-01-10T05:18:36.149Z,100846.47
2023-01-10T05:21:07.310Z,100853.50
2023-01-10T05:23:34.214Z,100845.81
2023-01-10T05:26:08.561Z,100861.06
2023-01-10T05:28:35.363Z,100857.66
2023-01-10T05:31:02.286Z,100860.25
2023-01-10T05:33:29.313Z,100846.28
2023-01-10T05:35:56.073Z,100855.59
2023-01-10T05:38:22.887Z,100864.41
2023-01-10T05:40:55.334Z,100868.72
2023-01-10T05:43:22.308Z,100873.53
2023-01-10T05:45:49.106Z,100879.03
2023-01-10T05:48:15.959Z,100874.84
2023-01-10T05:50:42.727Z,100880.78
2023-01-10T05:53:09.589Z,100883.56
2023-01-10T05:55:36.395Z,100889.59
2023-01-10T05:58:03.331Z,100888.66
2023-01-10T06:00:30.167Z,100889.78
2023-01-10T06:02:57.347Z,100903.66
2023-01-10T06:05:24.511Z,100909.13
2023-01-10T06:07:51.528Z,100920.41
2023-01-10T06:10:18.528Z,100917.00
2023-01-10T06:12:45.314Z,100928.94
2023-01-10T06:15:12.186Z,100934.13
2023-01-10T06:17:38.976Z,100935.97
2023-01-10T06:20:06.444Z,100940.31
2023-01-10T06:22:33.260Z,100948.84
2023-01-10T06:25:02.383Z,100946.53
2023-01-10T06:27:29.485Z,100956.88
2023-01-10T06:29:56.927Z,100960.50
2023-01-10T06:32:23.708Z,100964.75
2023-01-10T06:34:50.503Z,100971.06
2023-01-10T06:37:20.006Z,100968.00
2023-01-10T06:39:47.094Z,100971.63
2023-01-10T06:42:14.300Z,100971.97
2023-01-10T06:44:41.211Z,100979.94
2023-01-10T06:47:08.056Z,100986.22
2023-01-10T06:49:34.875Z,100988.34
2023-01-10T06:52:01.647Z,100990.22
2023-01-10T06:54:28.517Z,100991.34
2023-01-10T06:56:55.303Z,100994.47
2023-01-10T06:59:22.098Z,100990.28
2023-01-10T07:01:49.068Z,101006.56
2023-01-10T07:04:16.058Z,101012.03
2023-01-10T07:06:43.096Z,101023.94
2023-01-10T07:09:10.069Z,101022.63
2023-01-10T07:11:36.916Z,101030.69
2023-01-10T07:14:03.769Z,101027.44
2023-01-10T07:16:30.634Z,101036.97
2023-01-10T07:18:58.353Z,101043.47
2023-01-10T07:21:25.169Z,101038.75
2023-01-10T07:23:51.931Z,101050.09
2023-01-10T07:26:19.268Z,101046.31
2023-01-10T07:28:50.924Z,101061.81
2023-01-10T07:31:18.987Z,101045.81
2023-01-10T07:33:45.877Z,101056.91
2023-01-10T07:36:12.699Z,101045.81
2023-01-10T07:38:39.487Z,101056.47
2023-01-10T07:41:06.497Z,101056.31
2023-01-10T07:43:33.445Z,101056.03
2023-01-10T07:46:01.237Z,101056.59
2023-01-10T07:48:28.153Z,101059.84
2023-01-10T07:50:58.528Z,101049.75
2023-01-10T07:53:25.868Z,101069.78
2023-01-10T07:55:52.768Z,101074.69
2023-01-10T07:58:19.648Z,101085.53
2023-01-10T08:00:46.516Z,101094.50
2023-01-10T08:03:13.695Z,101090.84
2023-01-10T08:05:40.599Z,101102.41
2023-01-10T08:08:08.250Z,101107.47
2023-01-10T08:10:35.505Z,101115.91
2023-01-10T08:13:17.204Z,101115.19
2023-01-10T08:15:47.347Z,101120.84
2023-01-10T08:18:14.349Z,101127.50
2023-01-10T08:20:41.452Z,101132.88
2023-01-10T08:23:08.318Z,101135.84
2023-01-10T08:25:35.125Z,101146.63
2023-01-10T08:28:01.891Z,101154.56
2023-01-10T08:30:29.379Z,101142.81
2023-01-10T08:32:56.353Z,101151.06
2023-01-10T08:35:23.175Z,101140.59
2023-01-10T08:37:50.052Z,101139.75
2023-01-10T08:40:16.991Z,101147.94
2023-01-10T08:42:43.796Z,101155.59
2023-01-10T08:45:10.986Z,101153.69
2023-01-10T08:47:37.828Z,101154.56
2023-01-10T08:50:07.914Z,101167.28
2023-01-10T08:52:35.130Z,101174.28
2023-01-10T08:55:01.934Z,101185.34
2023-01-10T08:57:28.787Z,101177.84
2023-01-10T08:59:55.572Z,101195.88
2023-01-10T09:02:22.469Z,101181.72
2023-01-10T09:04:49.276Z,101188.19
2023-01-10T09:07:16.844Z,101188.50
2023-01-10T09:09:43.621Z,101187.84
2023-01-10T09:12:29.033Z,101199.06
2023-01-10T09:14:55.855Z,101205.31
2023-01-10T09:17:22.817Z,101202.63
2023-01-10T09:19:49.751Z,101212.56
2023-01-10T09:22:16.590Z,101218.94
2023-01-10T09:24:44.172Z,101218.50
2023-01-10T09:27:11.504Z,101203.50
2023-01-10T09:29:38.335Z,101219.63
2023-01-10T09:32:05.518Z,101213.25
2023-01-10T09:34:32.339Z,101223.25
2023-01-10T09:36:59.257Z,101233.97
2023-01-10T09:39:28.487Z,101229.16
2023-01-10T09:42:02.455Z,101234.28
2023-01-10T09:44:44.574Z,101239.75
2023-01-10T09:47:48.687Z,101246.19
2023-01-10T09:50:15.516Z,101251.81
2023-01-10T09:53:09.612Z,101236.34
2023-01-10T09:55:37.067Z,101240.03
2023-01-10T09:58:27.612Z,101237.47
2023-01-10T10:00:56.900Z,101236.41
2023-01-10T10:04:02.831Z,101245.44
2023-01-10T10:06:29.791Z,101238.44
2023-01-10T10:08:56.609Z,101242.50
2023-01-10T10:11:26.396Z,101241.09
2023-01-10T10:14:11.662Z,101242.06
2023-01-10T10:16:56.946Z,101256.81
2023-01-10T10:19:35.434Z,101243.19
2023-01-10T10:22:07.993Z,101244.41
2023-01-10T10:24:47.260Z,101239.91
2023-01-10T10:27:32.531Z,101249.53
2023-01-10T10:30:18.129Z,101258.66
2023-01-10T10:32:57.176Z,101260.34
2023-01-10T10:35:31.139Z,101259.72
2023-01-10T10:38:19.740Z,101262.09
2023-01-10T10:40:46.575Z,101254.38
2023-01-10T10:43:25.635Z,101256.38
2023-01-10T10:46:14.975Z,101256.59
2023-01-10T10:49:07.187Z,101257.13
2023-01-10T10:51:45.405Z,101253.06
2023-01-10T10:54:13.051Z,101257.06
2023-01-10T10:56:39.852Z,101251.63
2023-01-10T10:59:06.693Z,101249.91
2023-01-10T11:01:33.663Z,101247.03
2023-01-10T11:04:10.806Z,101247.88
2023-01-10T11:06:38.726Z,101261.53
2023-01-10T11:09:05.726Z,101252.53
2023-01-10T11:11:43.930Z,101263.97
2023-01-10T11:14:10.816Z,101262.09
2023-01-10T11:16:39.824Z,101257.34
2023-01-10T11:19:25.699Z,101274.59
2023-01-10T11:22:02.344Z,101274.75
2023-01-10T11:24:31.471Z,101264.53
2023-01-10T11:26:59.211Z,101270.13
2023-01-10T11:29:33.120Z,101269.03
2023-01-10T11:32:00.304Z,101274.03
2023-01-10T11:34:31.536Z,101278.44
2023-01-10T11:37:06.174Z,101288.66
2023-01-10T11:39:33.278Z,101281.47
2023-01-10T11:42:33.114Z,101286.59
2023-01-10T11:45:18.390Z,101285.91
2023-01-10T11:48:05.297Z,101287.81
2023-01-10T11:50:33.827Z,101294.13
2023-01-10T11:53:00.687Z,101293.16
2023-01-10T11:55:29.297Z,101297.31
2023-01-10T11:58:04.453Z,101302.16
2023-01-10T12:00:37.471Z,101297.19
2023-01-10T12:03:14.828Z,101307.16
2023-01-10T12:05:41.627Z,101307.63
2023-01-10T12:08:11.411Z,101307.91
2023-01-10T12:10:38.181Z,101316.84
2023-01-10T12:13:14.083Z,101316.69
2023-01-10T12:15:41.139Z,101317.94
2023-01-10T12:18:08.018Z,101310.28
2023-01-10T12:20:45.374Z,101320.00
2023-01-10T12:23:15.842Z,101315.59
2023-01-10T12:25:43.265Z,101314.97
2023-01-10T12:28:18.419Z,101316.88
2023-01-10T12:30:50.284Z,101315.59
2023-01-10T12:33:20.372Z,101323.94
2023-01-10T12:36:02.646Z,101327.03
2023-01-10T12:38:51.848Z,101337.38
2023-01-10T12:41:49.635Z,101346.59
2023-01-10T12:44:19.884Z,101344.22
2023-01-10T12:47:06.032Z,101353.00
2023-01-10T12:49:36.173Z,101354.09
2023-01-10T12:52:10.325Z,101361.50
2023-01-10T12:54:37.223Z,101356.88
2023-01-10T12:57:09.010Z,101366.38
2023-01-10T12:59:38.383Z,101370.53
2023-01-10T13:02:16.516Z,101377.78
2023-01-10T13:04:43.827Z,101372.66
2023-01-10T13:07:13.608Z,101387.75
2023-01-10T13:09:41.869Z,101385.84
2023-01-10T13:12:22.209Z,101394.00
2023-01-10T13:15:04.168Z,101388.16
2023-01-10T13:17:33.635Z,101406.44
2023-01-10T13:20:20.054Z,101402.75
2023-01-10T13:23:10.389Z,101402.59
2023-01-10T13:25:38.272Z,101413.81
2023-01-10T13:28:16.992Z,101402.59
2023-01-10T13:30:44.055Z,101407.94
2023-01-10T13:33:36.153Z,101409.03
2023-01-10T13:36:35.802Z,101409.81
2023-01-10T13:39:04.195Z,101409.97
2023-01-10T13:42:15.535Z,101412.50
2023-01-10T13:45:01.080Z,101424.31
2023-01-10T13:47:40.234Z,101434.00
2023-01-10T13:50:25.725Z,101425.06
2023-01-10T13:52:53.655Z,101416.28
2023-01-10T13:55:30.417Z,101420.94
2023-01-10T13:58:12.268Z,101409.91
2023-01-10T14:00:57.234Z,101421.59
2023-01-10T14:03:47.940Z,101430.97
2023-01-10T14:06:28.159Z,101438.31
2023-01-10T14:09:02.535Z,101444.88
2023-01-10T14:11:50.379Z,101451.34
2023-01-10T14:14:23.395Z,101436.63
2023-01-10T14:16:52.438Z,101443.22
2023-01-10T14:19:28.827Z,101448.28
2023-01-10T14:21:56.784Z,101449.41
2023-01-10T14:24:36.053Z,101456.06
2023-01-10T14:27:02.923Z,101456.44
2023-01-10T14:29:32.323Z,101459.00
2023-01-10T14:32:00.337Z,101458.41
2023-01-10T14:34:31.676Z,101469.06
2023-01-10T14:37:00.032Z,101473.47
2023-01-10T14:39:27.656Z,101489.72
2023-01-10T14:41:57.498Z,101482.47
2023-01-10T14:44:38.870Z,101491.59
2023-01-10T14:47:05.729Z,101497.06
2023-01-10T14:49:48.850Z,101498.84
2023-01-10T14:52:20.547Z,101499.75
2023-01-10T14:54:47.946Z,101492.06
2023-01-10T14:57:22.591Z,101489.53
2023-01-10T14:59:50.651Z,101495.84
2023-01-10T15:02:25.228Z,101497.91
2023-01-10T15:05:25.889Z,101505.13
2023-01-10T15:07:53.908Z,101503.16
2023-01-10T15:10:32.110Z,101504.28
2023-01-10T15:13:01.207Z,101505.44
2023-01-10T15:15:31.909Z,101504.25
2023-01-10T15:17:59.626Z,101510.38
2023-01-10T15:20:26.418Z,101512.56
2023-01-10T15:22:58.518Z,101512.16
2023-01-10T15:25:30.406Z,101514.47
2023-01-10T15:27:57.764Z,101527.59
2023-01-10T15:30:28.531Z,101528.81
2023-01-10T15:32:57.215Z,101518.75
2023-01-10T15:35:35.416Z,101534.44
2023-01-10T15:38:07.430Z,101532.00
2023-01-10T15:40:38.139Z,101542.03
2023-01-10T15:43:30.049Z,101544.94
2023-01-10T15:45:57.871Z,101540.25
2023-01-10T15:48:25.601Z,101548.69
2023-01-10T15:51:16.582Z,101551.94
2023-01-10T15:54:28.134Z,101552.88
2023-01-10T15:57:06.858Z,101540.50
2023-01-10T15:59:41.628Z,101550.06
2023-01-10T16:02:24.683Z,101547.31
2023-01-10T16:04:55.033Z,101551.94
2023-01-10T16:07:31.111Z,101548.84
2023-01-10T16:10:07.802Z,101561.81
2023-01-10T16:12:57.296Z,101556.28
2023-01-10T16:15:26.190Z,101560.72
2023-01-10T16:17:53.053Z,101559.31
2023-01-10T16:20:21.874Z,101564.72
2023-01-10T16:22:49.111Z,101575.19
2023-01-10T16:25:17.985Z,101581.31
2023-01-10T16:27:44.866Z,101584.63
2023-01-10T16:30:22.535Z,101580.06
2023-01-10T16:32:49.744Z,101590.94
2023-01-10T16:35:20.292Z,101579.47
2023-01-10T16:37:47.711Z,101595.28
2023-01-10T16:40:41.314Z,101594.78
2023-01-10T16:43:26.547Z,101595.34
2023-01-10T16:46:00.875Z,101601.59
2023-01-10T16:48:28.909Z,101597.84
2023-01-10T16:50:55.835Z,101595.91
2023-01-10T16:53:22.705Z,101595.47
2023-01-10T16:55:51.360Z,101590.94
2023-01-10T16:58:18.861Z,101603.59
2023-01-10T17:00:47.393Z,101606.00
2023-01-10T17:03:21.245Z,101610.19
2023-01-10T17:05:48.208Z,101607.41
2023-01-10T17:08:19.892Z,101606.41
2023-01-10T17:10:48.008Z,101600.47
2023-01-10T17:13:17.094Z,101605.41
2023-01-10T17:15:43.937Z,101616.34
2023-01-10T17:18:10.833Z,101602.63
2023-01-10T17:20:37.642Z,101614.59
2023-01-10T17:23:04.444Z,101616.28
2023-01-10T17:25:31.267Z,101608.66
2023-01-10T17:27:58.072Z,101614.69
2023-01-10T17:30:24.898Z,101624.06
2023-01-10T17:32:51.742Z,101617.94
2023-01-10T17:35:18.733Z,101616.16
2023-01-10T17:37:50.393Z,101626.31
2023-01-10T17:40:17.410Z,101617.94
2023-01-10T17:42:45.200Z,101614.41
2023-01-10T17:45:11.986Z,101613.41
2023-01-10T17:47:38.778Z,101612.41
2023-01-10T17:50:05.689Z,101607.47
2023-01-10T17:52:32.474Z,101604.13
2023-01-10T17:54:59.674Z,101601.78
2023-01-10T17:57:26.548Z,101606.88
2023-01-10T17:59:53.395Z,101610.50
2023-01-10T18:02:20.545Z,101608.06
2023-01-10T18:04:47.494Z,101611.34
2023-01-10T18:07:14.374Z,101597.13
2023-01-10T18:09:41.200Z,101599.63
2023-01-10T18:12:08.265Z,101596.28
2023-01-10T18:14:37.967Z,101612.69
2023-01-10T18:17:07.757Z,101608.50
2023-01-10T18:19:35.057Z,101623.09
2023-01-10T18:22:22.940Z,101617.13
2023-01-10T18:24:52.600Z,101618.06
2023-01-10T18:27:19.564Z,101628.44
2023-01-10T18:29:46.343Z,101617.13
2023-01-10T18:32:13.140Z,101617.13
2023-01-10T18:34:39.942Z,101623.38
2023-01-10T18:37:06.774Z,101631.06
2023-01-10T18:39:33.624Z,101623.38
2023-01-10T18:42:00.399Z,101632.25
2023-01-10T18:44:27.422Z,101614.69
2023-01-10T18:46:54.270Z,101622.72
2023-01-10T18:49:21.084Z,101621.53
2023-01-10T18:51:47.891Z,101621.31
2023-01-10T18:54:14.940Z,101625.44
2023-01-10T18:56:41.781Z,101627.50
2023-01-10T18:59:08.567Z,101629.84
2023-01-10T19:01:35.410Z,101628.56
2023-01-10T19:04:02.362Z,101623.81
2023-01-10T19:06:29.564Z,101628.31
2023-01-10T19:08:56.407Z,101632.91
2023-01-10T19:11:23.359Z,101628.38
2023-01-10T19:13:52.153Z,101639.88
2023-01-10T19:16:22.415Z,101630.31
2023-01-10T19:18:57.256Z,101630.28
2023-01-10T19:21:24.729Z,101625.00
2023-01-10T19:23:54.020Z,101637.81
2023-01-10T19:26:20.960Z,101648.53
2023-01-10T19:28:47.866Z,101643.81
2023-01-10T19:31:16.303Z,101649.13
2023-01-10T19:33:44.220Z,101637.25
2023-01-10T19:36:11.268Z,101639.69
2023-01-10T19:38:38.060Z,101629.47
2023-01-10T19:41:05.047Z,101628.56
2023-01-10T19:43:32.225Z,101641.34
2023-01-10T19:45:59.066Z,101650.66
2023-01-10T19:48:25.940Z,101637.69
2023-01-10T19:50:52.804Z,101643.38
2023-01-10T19:53:23.925Z,101649.97
2023-01-10T19:56:00.566Z,101651.19
2023-01-10T19:58:27.382Z,101650.22
2023-01-10T20:00:54.205Z,101651.88
2023-01-10T20:03:21.044Z,101663.72
2023-01-10T20:05:47.824Z,101668.66
2023-01-10T20:08:14.663Z,101678.63
2023-01-10T20:10:41.451Z,101669.19
2023-01-10T20:13:10.253Z,101665.84
2023-01-10T20:15:37.270Z,101669.34
2023-01-10T20:18:04.286Z,101667.97
2023-01-10T20:20:31.292Z,101672.75
2023-01-10T20:22:58.063Z,101673.78
2023-01-10T20:25:24.824Z,101685.94
2023-01-10T20:27:51.671Z,101691.59
2023-01-10T20:30:18.827Z,101696.22
2023-01-10T20:32:45.664Z,101693.81
2023-01-10T20:35:14.041Z,101693.22
2023-01-10T20:37:40.854Z,101694.84
2023-01-10T20:40:09.832Z,101688.28
2023-01-10T20:42:36.645Z,101683.44
2023-01-10T20:45:03.927Z,101686.16
2023-01-10T20:47:30.792Z,101686.25
2023-01-10T20:49:57.622Z,101685.34
2023-01-10T20:52:24.494Z,101674.28
2023-01-10T20:54:51.504Z,101666.38
2023-01-10T20:57:18.366Z,101663.72
2023-01-10T20:59:45.161Z,101665.47
2023-01-10T21:02:12.045Z,101675.38
2023-01-10T21:04:39.985Z,101664.09
2023-01-10T21:07:06.958Z,101658.66
2023-01-10T21:09:33.844Z,101662.84
2023-01-10T21:12:13.924Z,101664.50
2023-01-10T21:14:49.182Z,101658.50
2023-01-10T21:17:16.209Z,101658.28
2023-01-10T21:19:43.041Z,101665.59
2023-01-10T21:22:10.039Z,101675.69
2023-01-10T21:24:37.463Z,101669.47
2023-01-10T21:27:04.323Z,101675.34
2023-01-10T21:29:31.196Z,101674.38
2023-01-10T21:31:58.050Z,101671.72
2023-01-10T21:34:24.907Z,101676.91
2023-01-10T21:36:52.228Z,101670.13
2023-01-10T21:39:19.123Z,101667.53
2023-01-10T21:42:04.246Z,101669.34
2023-01-10T21:44:31.083Z,101670.94
2023-01-10T21:46:57.982Z,101667.53
2023-01-10T21:49:24.909Z,101673.53
2023-01-10T21:51:51.745Z,101667.66
2023-01-10T21:54:18.591Z,101680.25
2023-01-10T21:56:45.528Z,101692.28
2023-01-10T21:59:12.353Z,101678.56
2023-01-10T22:01:39.241Z,101672.75
2023-01-10T22:04:06.136Z,101683.50
2023-01-10T22:06:33.079Z,101670.56
2023-01-10T22:08:59.957Z,101680.78
2023-01-10T22:11:26.827Z,101670.72
2023-01-10T22:13:55.064Z,101679.31
2023-01-10T22:16:21.969Z,101670.84
2023-01-10T22:18:49.879Z,101671.25
2023-01-10T22:21:18.901Z,101682.38
2023-01-10T22:23:46.075Z,101677.50
2023-01-10T22:26:14.434Z,101686.19
2023-01-10T22:28:41.565Z,101694.94
2023-01-10T22:31:08.472Z,101691.50
2023-01-10T22:33:36.369Z,101683.97
2023-01-10T22:36:21.383Z,101688.28
2023-01-10T22:38:48.598Z,101685.63
2023-01-10T22:41:26.910Z,101677.91
2023-01-10T22:43:54.107Z,101683.72
2023-01-10T22:46:21.014Z,101664.00
2023-01-10T22:48:48.008Z,101676.50
2023-01-10T22:51:15.480Z,101662.72
2023-01-10T22:53:42.433Z,101667.56
2023-01-10T22:56:10.790Z,101655.84
2023-01-10T22:58:37.827Z,101669.44
2023-01-10T23:01:05.647Z,101663.56
2023-01-10T23:03:32.745Z,101656.72
2023-01-10T23:05:59.680Z,101655.84
2023-01-10T23:08:26.864Z,101665.09
2023-01-10T23:10:54.442Z,101657.31
2023-01-10T23:13:22.227Z,101658.91
2023-01-10T23:16:14.791Z,101651.06
2023-01-10T23:18:41.712Z,101662.03
2023-01-10T23:21:08.683Z,101653.50
2023-01-10T23:23:35.569Z,101654.28
2023-01-10T23:26:06.523Z,101648.47
2023-01-10T23:28:47.513Z,101651.06
2023-01-10T23:31:15.505Z,101650.22
2023-01-10T23:33:42.267Z,101647.78
2023-01-10T23:36:09.769Z,101648.31
2023-01-10T23:38:36.541Z,101658.97
2023-01-10T23:41:03.559Z,101667.19
2023-01-10T23:43:30.363Z,101661.84
2023-01-10T23:45:57.550Z,101664.06
2023-01-10T23:48:24.476Z,101651.03
2023-01-10T23:50:51.407Z,101644.19
2023-01-10T23:53:18.318Z,101653.91
2023-01-10T23:55:45.108Z,101646.41
2023-01-10T23:58:11.932Z,101653.34
